createdAt,value
2018-06-24T00:00:28.305Z,73.79
2018-06-24T00:01:31.099Z,74.65
2018-06-24T00:02:33.946Z,74.38
2018-06-24T00:03:37.669Z,74.19
2018-06-24T00:04:40.478Z,74.78
2018-06-24T00:05:44.447Z,75.10
2018-06-24T00:06:48.960Z,74.88
2018-06-24T00:07:52.058Z,73.99
2018-06-24T00:08:56.207Z,74.58
2018-06-24T00:09:59.215Z,74.99
2018-06-24T00:11:03.433Z,74.60
2018-06-24T00:12:06.270Z,73.94
2018-06-24T00:13:09.377Z,74.01
2018-06-24T00:14:12.246Z,74.55
2018-06-24T00:15:15.271Z,74.33
2018-06-24T00:16:18.727Z,74.79
2018-06-24T00:17:22.169Z,74.62
2018-06-24T00:18:25.002Z,74.70
2018-06-24T00:19:31.298Z,74.47
2018-06-24T00:20:34.097Z,74.19
2018-06-24T00:21:37.483Z,74.71
2018-06-24T00:22:40.330Z,74.85
2018-06-24T00:23:43.668Z,75.13
2018-06-24T00:24:46.472Z,75.25
2018-06-24T00:25:49.550Z,75.10
2018-06-24T00:26:52.374Z,75.54
2018-06-24T00:27:55.721Z,74.96
2018-06-24T00:28:59.436Z,74.97
2018-06-24T00:30:02.618Z,75.37
2018-06-24T00:31:08.723Z,75.30
2018-06-24T00:32:11.843Z,75.82
2018-06-24T00:33:14.627Z,75.24
2018-06-24T00:34:17.470Z,75.68
2018-06-24T00:35:20.275Z,76.12
2018-06-24T00:36:23.068Z,75.72
2018-06-24T00:37:26.261Z,74.93
2018-06-24T00:38:29.334Z,75.70
2018-06-24T00:39:32.176Z,75.69
2018-06-24T00:40:34.947Z,75.60
2018-06-24T00:41:37.833Z,75.48
2018-06-24T00:42:40.594Z,75.10
2018-06-24T00:43:43.370Z,75.73
2018-06-24T00:44:46.494Z,75.45
2018-06-24T00:45:49.306Z,75.86
2018-06-24T00:46:52.133Z,75.91
2018-06-24T00:47:54.953Z,75.18
2018-06-24T00:48:57.829Z,75.89
2018-06-24T00:50:00.681Z,76.22
2018-06-24T00:51:03.857Z,75.81
2018-06-24T00:52:06.919Z,76.03
2018-06-24T00:53:09.992Z,75.62
2018-06-24T00:54:12.791Z,76.50
2018-06-24T00:55:16.083Z,76.01
2018-06-24T00:56:18.906Z,75.77
2018-06-24T00:57:22.290Z,76.21
2018-06-24T00:58:25.345Z,76.03
2018-06-24T00:59:28.501Z,75.87
2018-06-24T01:00:31.550Z,76.10
2018-06-24T01:01:34.535Z,76.17
2018-06-24T01:02:37.704Z,76.12
2018-06-24T01:03:40.532Z,76.13
2018-06-24T01:04:43.605Z,76.25
2018-06-24T01:05:46.718Z,76.49
2018-06-24T01:06:50.542Z,76.53
2018-06-24T01:07:57.131Z,77.02
2018-06-24T01:09:00.906Z,77.11
2018-06-24T01:10:06.082Z,76.95
2018-06-24T01:11:09.419Z,77.73
2018-06-24T01:12:12.231Z,77.48
2018-06-24T01:13:15.017Z,77.44
2018-06-24T01:14:17.822Z,77.59
2018-06-24T01:15:21.385Z,77.35
2018-06-24T01:16:26.413Z,77.53
2018-06-24T01:17:29.293Z,77.51
2018-06-24T01:18:32.089Z,77.67
2018-06-24T01:19:34.923Z,77.31
2018-06-24T01:20:37.778Z,77.32
2018-06-24T01:21:42.075Z,77.47
2018-06-24T01:22:45.193Z,77.44
2018-06-24T01:23:48.613Z,77.52
2018-06-24T01:24:51.411Z,77.58
2018-06-24T01:25:54.262Z,77.44
2018-06-24T01:26:57.073Z,77.57
2018-06-24T01:28:00.413Z,77.99
2018-06-24T01:29:04.348Z,77.47
2018-06-24T01:30:08.175Z,77.44
2018-06-24T01:31:10.953Z,77.59
2018-06-24T01:32:13.776Z,77.73
2018-06-24T01:33:16.542Z,77.76
2018-06-24T01:34:19.329Z,78.20
2018-06-24T01:35:22.560Z,77.88
2018-06-24T01:36:25.420Z,77.57
2018-06-24T01:37:28.187Z,77.34
2018-06-24T01:38:31.098Z,77.94
2018-06-24T01:39:34.554Z,78.24
2018-06-24T01:40:37.329Z,77.88
2018-06-24T01:41:40.408Z,77.47
2018-06-24T01:42:43.300Z,77.94
2018-06-24T01:43:46.081Z,78.11
2018-06-24T01:44:48.872Z,78.32
2018-06-24T01:45:53.360Z,77.56
2018-06-24T01:46:56.224Z,77.77
2018-06-24T01:48:00.190Z,77.68
2018-06-24T01:49:02.982Z,78.08
2018-06-24T01:50:05.832Z,77.84
2018-06-24T01:51:08.644Z,78.18
2018-06-24T01:52:11.428Z,77.49
2018-06-24T01:53:14.261Z,77.10
2018-06-24T01:54:18.239Z,77.76
2018-06-24T01:55:21.053Z,77.78
2018-06-24T01:56:23.830Z,77.57
2018-06-24T01:57:27.103Z,78.07
2018-06-24T01:58:31.216Z,78.41
2018-06-24T01:59:34.046Z,78.46
2018-06-24T02:00:37.132Z,78.47
2018-06-24T02:01:40.908Z,78.09
2018-06-24T02:02:43.706Z,78.47
2018-06-24T02:03:46.520Z,78.40
2018-06-24T02:04:49.278Z,78.70
2018-06-24T02:05:52.713Z,78.67
2018-06-24T02:06:55.822Z,78.04
2018-06-24T02:07:58.603Z,78.07
2018-06-24T02:09:01.377Z,77.89
2018-06-24T02:10:04.178Z,78.39
2018-06-24T02:11:06.965Z,78.36
2018-06-24T02:12:09.774Z,78.61
2018-06-24T02:13:12.829Z,78.29
2018-06-24T02:14:15.651Z,78.01
2018-06-24T02:15:18.410Z,78.25
2018-06-24T02:16:21.272Z,77.69
2018-06-24T02:17:27.049Z,77.91
2018-06-24T02:18:29.822Z,78.41
2018-06-24T02:19:32.916Z,78.13
2018-06-24T02:20:35.682Z,78.30
2018-06-24T02:21:38.623Z,77.92
2018-06-24T02:22:41.406Z,78.27
2018-06-24T02:23:44.229Z,78.07
2018-06-24T02:24:47.005Z,78.12
2018-06-24T02:25:50.210Z,77.82
2018-06-24T02:26:52.996Z,78.71
2018-06-24T02:27:55.765Z,78.13
2018-06-24T02:28:58.569Z,78.27
2018-06-24T02:30:01.406Z,78.06
2018-06-24T02:31:04.226Z,78.73
2018-06-24T02:32:07.321Z,77.88
2018-06-24T02:33:10.098Z,78.28
2018-06-24T02:34:12.920Z,78.70
2018-06-24T02:35:15.683Z,78.85
2018-06-24T02:36:18.465Z,79.10
2018-06-24T02:37:21.249Z,78.69
2018-06-24T02:38:24.047Z,79.16
2018-06-24T02:39:26.809Z,78.74
2018-06-24T02:40:29.620Z,78.82
2018-06-24T02:41:32.408Z,78.80
2018-06-24T02:42:35.174Z,78.61
2018-06-24T02:43:37.983Z,78.23
2018-06-24T02:44:41.087Z,78.63
2018-06-24T02:45:43.849Z,78.82
2018-06-24T02:46:46.609Z,78.94
2018-06-24T02:47:49.384Z,78.99
2018-06-24T02:48:52.745Z,79.05
2018-06-24T02:49:55.531Z,79.06
2018-06-24T02:50:58.607Z,78.80
2018-06-24T02:52:01.372Z,78.59
2018-06-24T02:53:04.340Z,79.06
2018-06-24T02:54:07.126Z,78.99
2018-06-24T02:55:10.880Z,78.95
2018-06-24T02:56:13.718Z,78.71
2018-06-24T02:57:17.211Z,78.88
2018-06-24T02:58:20.921Z,78.84
2018-06-24T02:59:25.107Z,78.89
2018-06-24T03:00:27.906Z,79.10
2018-06-24T03:01:30.673Z,79.81
2018-06-24T03:02:33.437Z,79.29
2018-06-24T03:03:36.510Z,79.21
2018-06-24T03:04:39.313Z,79.86
2018-06-24T03:05:43.073Z,79.83
2018-06-24T03:06:45.873Z,79.36
2018-06-24T03:07:48.657Z,80.20
2018-06-24T03:08:51.736Z,80.25
2018-06-24T03:09:54.810Z,79.82
2018-06-24T03:10:57.649Z,79.50
2018-06-24T03:12:00.675Z,79.51
2018-06-24T03:13:03.513Z,80.12
2018-06-24T03:14:06.592Z,79.68
2018-06-24T03:15:09.397Z,79.33
2018-06-24T03:16:12.487Z,79.59
2018-06-24T03:17:15.295Z,79.62
2018-06-24T03:18:18.192Z,79.50
2018-06-24T03:19:20.990Z,79.57
2018-06-24T03:20:23.777Z,79.36
2018-06-24T03:21:26.585Z,79.11
2018-06-24T03:22:29.693Z,79.50
2018-06-24T03:23:32.509Z,78.91
2018-06-24T03:24:35.328Z,79.22
2018-06-24T03:25:38.722Z,79.51
2018-06-24T03:26:41.599Z,79.42
2018-06-24T03:27:44.384Z,79.11
2018-06-24T03:28:47.462Z,78.88
2018-06-24T03:29:50.221Z,79.39
2018-06-24T03:30:53.041Z,78.65
2018-06-24T03:31:55.830Z,79.32
2018-06-24T03:32:58.599Z,78.73
2018-06-24T03:34:01.468Z,78.52
2018-06-24T03:35:04.569Z,78.98
2018-06-24T03:36:07.351Z,78.76
2018-06-24T03:37:10.118Z,78.71
2018-06-24T03:38:12.901Z,78.53
2018-06-24T03:39:15.690Z,78.15
2018-06-24T03:40:18.531Z,78.39
2018-06-24T03:41:21.626Z,78.08
2018-06-24T03:42:24.436Z,77.93
2018-06-24T03:43:27.286Z,77.70
2018-06-24T03:44:30.104Z,77.65
2018-06-24T03:45:32.886Z,77.52
2018-06-24T03:46:35.812Z,77.82
2018-06-24T03:47:38.966Z,77.77
2018-06-24T03:48:41.760Z,78.00
2018-06-24T03:49:44.539Z,77.77
2018-06-24T03:50:47.342Z,77.74
2018-06-24T03:51:50.108Z,77.52
2018-06-24T03:52:52.899Z,77.89
2018-06-24T03:53:55.993Z,77.75
2018-06-24T03:54:58.791Z,77.97
2018-06-24T03:56:01.566Z,78.51
2018-06-24T03:57:04.408Z,77.60
2018-06-24T03:58:07.227Z,77.47
2018-06-24T03:59:10.035Z,77.43
2018-06-24T04:00:13.101Z,77.41
2018-06-24T04:01:15.874Z,77.43
2018-06-24T04:02:18.691Z,77.65
2018-06-24T04:03:21.608Z,77.51
2018-06-24T04:04:24.499Z,77.60
2018-06-24T04:05:27.286Z,76.86
2018-06-24T04:06:30.376Z,76.81
2018-06-24T04:07:33.184Z,77.34
2018-06-24T04:08:36.607Z,77.05
2018-06-24T04:09:39.395Z,76.53
2018-06-24T04:10:42.207Z,77.21
2018-06-24T04:11:45.674Z,76.32
2018-06-24T04:12:48.456Z,76.32
2018-06-24T04:13:51.294Z,76.48
2018-06-24T04:14:54.121Z,76.95
2018-06-24T04:15:56.916Z,76.80
2018-06-24T04:16:59.700Z,77.11
2018-06-24T04:18:02.492Z,76.32
2018-06-24T04:19:05.573Z,76.81
2018-06-24T04:20:08.362Z,76.98
2018-06-24T04:21:12.363Z,76.80
2018-06-24T04:22:15.158Z,76.40
2018-06-24T04:23:17.944Z,76.13
2018-06-24T04:24:20.761Z,76.85
2018-06-24T04:25:24.009Z,76.73
2018-06-24T04:26:26.792Z,76.49
2018-06-24T04:27:29.574Z,76.57
2018-06-24T04:28:32.353Z,75.63
2018-06-24T04:29:35.923Z,76.25
2018-06-24T04:30:38.712Z,76.16
2018-06-24T04:31:41.859Z,76.57
2018-06-24T04:32:45.521Z,76.68
2018-06-24T04:33:48.313Z,76.20
2018-06-24T04:34:51.114Z,77.00
2018-06-24T04:35:53.891Z,76.95
2018-06-24T04:36:56.664Z,76.46
2018-06-24T04:37:59.777Z,76.52
2018-06-24T04:39:02.609Z,76.89
2018-06-24T04:40:05.443Z,76.68
2018-06-24T04:41:08.673Z,76.90
2018-06-24T04:42:11.487Z,76.41
2018-06-24T04:43:14.276Z,76.67
2018-06-24T04:44:17.557Z,76.04
2018-06-24T04:45:21.020Z,76.26
2018-06-24T04:46:24.740Z,75.80
2018-06-24T04:47:34.109Z,76.44
2018-06-24T04:48:37.360Z,75.98
2018-06-24T04:49:40.113Z,76.74
2018-06-24T04:50:43.236Z,76.54
2018-06-24T04:51:46.095Z,76.12
2018-06-24T04:52:48.853Z,77.09
2018-06-24T04:53:51.636Z,78.05
2018-06-24T04:54:54.442Z,78.31
2018-06-24T04:55:57.269Z,78.68
2018-06-24T04:57:00.342Z,78.57
2018-06-24T04:58:03.164Z,78.60
2018-06-24T04:59:06.613Z,78.56
2018-06-24T05:00:09.387Z,78.26
2018-06-24T05:01:12.805Z,78.61
2018-06-24T05:02:15.613Z,78.13
2018-06-24T05:03:18.712Z,77.78
2018-06-24T05:04:21.508Z,78.02
2018-06-24T05:05:24.303Z,78.30
2018-06-24T05:06:27.101Z,78.09
2018-06-24T05:07:29.887Z,77.97
2018-06-24T05:08:32.675Z,78.20
2018-06-24T05:09:35.811Z,77.57
2018-06-24T05:10:38.636Z,77.18
2018-06-24T05:11:41.434Z,77.51
2018-06-24T05:12:44.212Z,76.95
2018-06-24T05:13:47.008Z,76.61
2018-06-24T05:14:49.822Z,76.10
2018-06-24T05:15:52.920Z,76.30
2018-06-24T05:16:55.718Z,76.05
2018-06-24T05:17:58.507Z,76.55
2018-06-24T05:19:01.390Z,76.41
2018-06-24T05:20:04.187Z,75.71
2018-06-24T05:21:06.982Z,75.52
2018-06-24T05:22:10.052Z,75.57
2018-06-24T05:23:12.857Z,76.25
2018-06-24T05:24:15.677Z,76.19
2018-06-24T05:25:18.455Z,76.40
2018-06-24T05:26:21.255Z,76.57
2018-06-24T05:27:24.047Z,76.24
2018-06-24T05:28:27.223Z,76.07
2018-06-24T05:29:30.058Z,75.40
2018-06-24T05:30:32.873Z,75.76
2018-06-24T05:31:35.721Z,76.32
2018-06-24T05:32:39.143Z,75.78
2018-06-24T05:33:43.090Z,76.51
2018-06-24T05:34:46.142Z,76.50
2018-06-24T05:35:48.994Z,75.75
2018-06-24T05:36:52.124Z,75.66
2018-06-24T05:37:54.946Z,75.43
2018-06-24T05:38:59.345Z,75.19
2018-06-24T05:40:02.136Z,75.27
2018-06-24T05:41:05.313Z,74.99
2018-06-24T05:42:08.167Z,75.11
2018-06-24T05:43:11.001Z,75.11
2018-06-24T05:44:13.814Z,75.79
2018-06-24T05:45:16.614Z,75.26
2018-06-24T05:46:19.393Z,75.88
2018-06-24T05:47:22.156Z,75.49
2018-06-24T05:48:24.985Z,74.63
2018-06-24T05:49:27.780Z,74.73
2018-06-24T05:50:30.788Z,74.66
2018-06-24T05:51:34.537Z,75.02
2018-06-24T05:52:37.327Z,75.06
2018-06-24T05:53:40.401Z,75.49
2018-06-24T05:54:43.418Z,75.59
2018-06-24T05:55:46.819Z,75.79
2018-06-24T05:56:49.615Z,76.33
2018-06-24T05:57:52.790Z,76.32
2018-06-24T05:58:56.111Z,76.26
2018-06-24T05:59:59.248Z,76.06
2018-06-24T06:01:02.028Z,75.39
2018-06-24T06:02:04.826Z,75.34
2018-06-24T06:03:08.036Z,76.37
2018-06-24T06:04:10.816Z,76.06
2018-06-24T06:05:13.630Z,75.29
2018-06-24T06:06:16.745Z,75.56
2018-06-24T06:07:19.563Z,75.43
2018-06-24T06:08:22.405Z,74.92
2018-06-24T06:09:25.187Z,75.00
2018-06-24T06:10:28.077Z,74.74
2018-06-24T06:11:30.825Z,74.60
2018-06-24T06:12:34.178Z,74.94
2018-06-24T06:13:37.560Z,74.83
2018-06-24T06:14:40.374Z,75.10
2018-06-24T06:15:43.156Z,74.95
2018-06-24T06:16:45.956Z,75.00
2018-06-24T06:17:48.756Z,74.30
2018-06-24T06:18:51.837Z,74.58
2018-06-24T06:19:54.749Z,74.22
2018-06-24T06:20:57.563Z,74.55
2018-06-24T06:22:00.386Z,74.82
2018-06-24T06:23:03.833Z,74.82
2018-06-24T06:24:06.632Z,74.38
2018-06-24T06:25:09.830Z,74.81
2018-06-24T06:26:12.668Z,74.04
2018-06-24T06:27:15.482Z,74.13
2018-06-24T06:28:18.582Z,74.16
2018-06-24T06:29:21.374Z,73.62
2018-06-24T06:30:24.250Z,73.49
2018-06-24T06:31:27.292Z,73.49
2018-06-24T06:32:30.694Z,74.08
2018-06-24T06:33:33.527Z,73.33
2018-06-24T06:34:37.942Z,73.64
2018-06-24T06:35:43.734Z,74.58
2018-06-24T06:36:46.563Z,74.38
2018-06-24T06:37:49.643Z,74.60
2018-06-24T06:38:52.463Z,74.48
2018-06-24T06:39:55.267Z,74.46
2018-06-24T06:40:58.055Z,74.26
2018-06-24T06:42:00.859Z,74.07
2018-06-24T06:43:06.376Z,74.30
2018-06-24T06:44:09.443Z,74.86
2018-06-24T06:45:12.277Z,74.53
2018-06-24T06:46:15.213Z,73.39
2018-06-24T06:47:17.979Z,72.86
2018-06-24T06:48:20.814Z,72.66
2018-06-24T06:49:23.597Z,72.95
2018-06-24T06:50:26.640Z,72.24
2018-06-24T06:51:29.437Z,72.53
2018-06-24T06:52:32.233Z,72.78
2018-06-24T06:53:35.057Z,72.64
2018-06-24T06:54:38.313Z,71.97
2018-06-24T06:55:41.130Z,72.58
2018-06-24T06:56:45.825Z,72.17
2018-06-24T06:57:48.648Z,71.74
2018-06-24T06:58:51.453Z,71.90
2018-06-24T06:59:55.023Z,71.38
2018-06-24T07:00:57.863Z,71.71
2018-06-24T07:02:00.633Z,70.79
2018-06-24T07:03:03.759Z,70.75
2018-06-24T07:04:07.554Z,70.27
2018-06-24T07:05:10.317Z,70.96
2018-06-24T07:06:13.184Z,70.60
2018-06-24T07:07:15.961Z,70.95
2018-06-24T07:08:18.752Z,70.24
2018-06-24T07:09:21.847Z,70.23
2018-06-24T07:10:24.641Z,70.96
2018-06-24T07:11:27.434Z,70.56
2018-06-24T07:12:30.214Z,70.49
2018-06-24T07:13:32.968Z,69.81
2018-06-24T07:14:35.781Z,69.72
2018-06-24T07:15:39.535Z,69.93
2018-06-24T07:16:42.355Z,69.57
2018-06-24T07:17:45.128Z,69.98
2018-06-24T07:18:47.914Z,70.12
2018-06-24T07:19:50.728Z,71.14
2018-06-24T07:20:53.517Z,71.21
2018-06-24T07:21:56.463Z,70.45
2018-06-24T07:22:59.249Z,70.47
2018-06-24T07:24:02.733Z,70.81
2018-06-24T07:25:06.139Z,70.93
2018-06-24T07:26:09.083Z,69.68
2018-06-24T07:27:11.917Z,69.98
2018-06-24T07:28:15.029Z,69.98
2018-06-24T07:29:17.817Z,69.13
2018-06-24T07:30:21.353Z,69.42
2018-06-24T07:31:24.189Z,69.84
2018-06-24T07:32:27.914Z,69.18
2018-06-24T07:33:30.752Z,68.67
2018-06-24T07:34:36.862Z,68.50
2018-06-24T07:35:39.797Z,67.88
2018-06-24T07:36:58.035Z,68.27
2018-06-24T07:38:04.492Z,67.92
2018-06-24T07:39:07.304Z,68.33
2018-06-24T07:40:11.493Z,68.02
2018-06-24T07:41:14.951Z,67.83
2018-06-24T07:42:17.727Z,67.32
2018-06-24T07:43:20.518Z,67.08
2018-06-24T07:44:23.314Z,66.36
2018-06-24T07:45:26.276Z,66.41
2018-06-24T07:46:29.454Z,66.71
2018-06-24T07:47:37.596Z,66.08
2018-06-24T07:48:46.980Z,65.92
2018-06-24T07:49:54.908Z,65.65
2018-06-24T07:51:00.427Z,64.88
2018-06-24T07:52:04.297Z,64.37
2018-06-24T07:53:12.798Z,63.86
2018-06-24T07:54:17.209Z,63.38
2018-06-24T07:56:53.253Z,62.07
2018-06-24T07:57:57.296Z,62.86
2018-06-24T07:59:00.586Z,62.04
2018-06-24T08:00:05.236Z,62.47
2018-06-24T08:01:10.260Z,61.68
2018-06-24T08:02:13.085Z,61.13
2018-06-24T08:03:16.982Z,61.56
2018-06-24T08:04:20.498Z,60.95
2018-06-24T08:05:23.579Z,60.81
2018-06-24T08:06:26.379Z,61.01
2018-06-24T08:07:30.042Z,61.02
2018-06-24T08:08:32.907Z,60.72
2018-06-24T08:09:37.041Z,60.88
2018-06-24T08:10:40.681Z,60.51
2018-06-24T08:11:43.535Z,60.19
2018-06-24T08:12:47.322Z,59.79
2018-06-24T08:13:51.136Z,60.12
2018-06-24T08:14:53.965Z,60.01
2018-06-24T08:15:56.729Z,59.02
2018-06-24T08:16:59.805Z,59.71
2018-06-24T08:18:02.653Z,58.93
2018-06-24T08:19:05.450Z,58.24
2018-06-24T08:20:08.261Z,58.31
2018-06-24T08:21:11.573Z,59.44
2018-06-24T08:22:15.202Z,60.55
2018-06-24T08:23:18.299Z,60.73
2018-06-24T08:24:21.712Z,60.14
2018-06-24T08:25:25.278Z,59.44
2018-06-24T08:26:29.071Z,60.67
2018-06-24T08:27:32.881Z,60.74
2018-06-24T08:28:35.752Z,60.23
2018-06-24T08:29:38.900Z,59.68
2018-06-24T08:30:41.684Z,59.53
2018-06-24T08:31:45.503Z,59.15
2018-06-24T08:32:48.600Z,60.21
2018-06-24T08:33:52.426Z,59.45
2018-06-24T08:34:55.236Z,59.38
2018-06-24T08:35:58.394Z,59.97
2018-06-24T08:37:01.211Z,60.02
2018-06-24T08:38:05.204Z,60.28
2018-06-24T08:39:09.029Z,60.76
2018-06-24T08:40:11.897Z,60.50
2018-06-24T08:41:15.822Z,59.93
2018-06-24T08:42:19.545Z,60.08
2018-06-24T08:43:23.927Z,59.06
2018-06-24T08:44:29.365Z,57.93
2018-06-24T08:45:34.331Z,58.77
2018-06-24T08:46:37.160Z,58.68
2018-06-24T08:47:41.793Z,58.26
2018-06-24T08:48:47.627Z,58.01
2018-06-24T08:49:51.357Z,57.74
2018-06-24T08:50:54.297Z,57.82
2018-06-24T08:51:59.866Z,57.75
2018-06-24T08:53:09.686Z,58.08
2018-06-24T08:54:13.743Z,58.04
2018-06-24T08:55:18.497Z,56.84
2018-06-24T08:56:21.382Z,56.67
2018-06-24T08:57:24.184Z,57.29
2018-06-24T08:58:27.867Z,57.06
2018-06-24T08:59:30.642Z,56.91
2018-06-24T09:00:35.539Z,56.55
2018-06-24T09:01:38.893Z,56.91
2018-06-24T09:02:41.946Z,57.11
2018-06-24T09:03:47.421Z,57.53
2018-06-24T09:04:50.221Z,57.02
2018-06-24T09:05:52.987Z,55.80
2018-06-24T09:06:55.785Z,54.98
2018-06-24T09:07:59.460Z,55.60
2018-06-24T09:09:03.163Z,54.98
2018-06-24T09:10:05.976Z,55.08
2018-06-24T09:11:09.719Z,55.05
2018-06-24T09:12:13.469Z,55.16
2018-06-24T09:13:16.261Z,55.68
2018-06-24T09:14:21.640Z,54.14
2018-06-24T09:15:25.644Z,54.09
2018-06-24T09:16:29.172Z,54.97
2018-06-24T09:17:33.163Z,54.54
2018-06-24T09:18:37.240Z,54.03
2018-06-24T09:19:42.098Z,54.30
2018-06-24T09:20:45.247Z,54.09
2018-06-24T09:21:49.760Z,53.66
2018-06-24T09:22:56.338Z,54.27
2018-06-24T09:24:00.482Z,54.33
2018-06-24T09:25:04.158Z,54.14
2018-06-24T09:26:08.922Z,54.71
2018-06-24T09:27:12.683Z,54.30
2018-06-24T09:28:15.955Z,56.29
2018-06-24T09:29:19.622Z,56.44
2018-06-24T09:30:23.055Z,57.66
2018-06-24T09:31:25.884Z,57.71
2018-06-24T09:32:28.855Z,57.18
2018-06-24T09:33:33.609Z,57.69
2018-06-24T09:34:37.316Z,56.98
2018-06-24T09:35:41.345Z,56.97
2018-06-24T09:36:45.963Z,56.37
2018-06-24T09:37:48.847Z,56.73
2018-06-24T09:38:53.838Z,56.83
2018-06-24T09:40:00.607Z,56.60
2018-06-24T09:41:04.308Z,56.96
2018-06-24T09:42:10.109Z,56.42
2018-06-24T09:43:19.616Z,57.09
2018-06-24T09:44:34.178Z,56.78
2018-06-24T09:45:37.784Z,56.56
2018-06-24T09:46:46.432Z,56.06
2018-06-24T09:47:49.707Z,55.18
2018-06-24T09:48:52.524Z,55.77
2018-06-24T09:49:58.554Z,55.11
2018-06-24T09:51:03.599Z,54.54
2018-06-24T09:52:10.594Z,54.21
2018-06-24T09:53:13.714Z,55.59
2018-06-24T09:54:16.510Z,55.42
2018-06-24T09:55:19.320Z,55.27
2018-06-24T09:56:22.415Z,54.50
2018-06-24T09:57:27.405Z,53.38
2018-06-24T09:58:31.351Z,53.42
2018-06-24T09:59:34.240Z,53.77
2018-06-24T10:00:38.084Z,53.83
2018-06-24T10:01:43.034Z,53.71
2018-06-24T10:02:47.038Z,52.91
2018-06-24T10:03:50.177Z,52.50
2018-06-24T10:04:54.986Z,52.98
2018-06-24T10:05:57.777Z,53.23
2018-06-24T10:07:00.605Z,52.28
2018-06-24T10:08:03.461Z,52.79
2018-06-24T10:09:06.387Z,53.01
2018-06-24T10:10:10.285Z,53.30
2018-06-24T10:11:13.519Z,54.75
2018-06-24T10:12:16.324Z,55.00
2018-06-24T10:13:19.954Z,54.74
2018-06-24T10:14:23.343Z,55.25
2018-06-24T10:15:27.246Z,55.84
2018-06-24T10:16:31.600Z,55.80
2018-06-24T10:17:36.429Z,54.75
2018-06-24T10:18:40.424Z,54.71
2018-06-24T10:19:46.997Z,54.31
2018-06-24T10:20:55.569Z,54.25
2018-06-24T10:21:59.348Z,53.30
2018-06-24T10:23:02.784Z,52.42
2018-06-24T10:24:06.477Z,52.48
2018-06-24T10:25:10.078Z,52.91
2018-06-24T10:26:12.855Z,52.78
2018-06-24T10:27:17.026Z,52.86
2018-06-24T10:28:24.150Z,52.21
2018-06-24T10:29:27.027Z,51.85
2018-06-24T10:30:31.237Z,50.71
2018-06-24T10:31:34.583Z,50.79
2018-06-24T10:32:37.374Z,49.92
2018-06-24T10:33:41.860Z,50.02
2018-06-24T10:34:44.705Z,50.15
2018-06-24T10:35:47.490Z,50.30
2018-06-24T10:36:50.544Z,50.50
2018-06-24T10:37:53.336Z,49.28
2018-06-24T10:38:56.440Z,49.35
2018-06-24T10:40:02.854Z,51.29
2018-06-24T10:41:06.462Z,50.82
2018-06-24T10:42:09.396Z,51.02
2018-06-24T10:43:12.733Z,49.79
2018-06-24T10:44:15.535Z,49.90
2018-06-24T10:45:20.108Z,51.24
2018-06-24T10:46:24.725Z,50.83
2018-06-24T10:47:28.527Z,50.44
2018-06-24T10:48:35.330Z,50.71
2018-06-24T10:49:42.825Z,51.58
2018-06-24T10:50:46.556Z,51.75
2018-06-24T10:51:49.930Z,51.09
2018-06-24T10:52:54.618Z,50.69
2018-06-24T10:53:59.235Z,50.70
2018-06-24T10:55:03.957Z,51.27
2018-06-24T10:56:10.454Z,51.58
2018-06-24T10:57:16.832Z,50.26
2018-06-24T10:58:20.561Z,51.22
2018-06-24T10:59:25.361Z,50.66
2018-06-24T11:00:28.712Z,51.49
2018-06-24T11:01:34.795Z,50.59
2018-06-24T11:02:39.308Z,50.51
2018-06-24T11:03:43.698Z,51.45
2018-06-24T11:05:53.976Z,51.80
2018-06-24T11:06:56.750Z,51.40
2018-06-24T11:08:00.903Z,51.04
2018-06-24T11:09:05.243Z,50.55
2018-06-24T11:10:09.045Z,50.68
2018-06-24T11:11:16.562Z,50.78
2018-06-24T11:12:19.402Z,51.56
2018-06-24T11:13:24.758Z,51.22
2018-06-24T11:14:30.283Z,50.99
2018-06-24T11:15:33.958Z,51.59
2018-06-24T11:16:38.994Z,51.63
2018-06-24T11:17:43.384Z,50.61
2018-06-24T11:18:47.522Z,51.34
2018-06-24T11:19:50.413Z,51.27
2018-06-24T11:20:56.405Z,50.85
2018-06-24T11:22:02.455Z,51.38
2018-06-24T11:23:06.301Z,51.09
2018-06-24T11:24:09.160Z,50.62
2018-06-24T11:25:12.620Z,50.71
2018-06-24T11:26:16.301Z,50.40
2018-06-24T11:27:21.940Z,49.96
2018-06-24T11:28:26.199Z,50.87
2018-06-24T11:29:29.251Z,49.85
2018-06-24T11:30:32.754Z,50.12
2018-06-24T11:31:35.593Z,49.52
2018-06-24T11:32:38.542Z,50.20
2018-06-24T11:33:41.432Z,49.64
2018-06-24T11:34:44.581Z,49.64
2018-06-24T11:35:47.435Z,48.40
2018-06-24T11:36:50.345Z,47.85
2018-06-24T11:37:53.311Z,48.41
2018-06-24T11:38:56.151Z,48.51
2018-06-24T11:39:59.123Z,48.33
2018-06-24T11:41:02.258Z,48.87
2018-06-24T11:42:08.850Z,48.64
2018-06-24T11:43:12.626Z,48.16
2018-06-24T11:44:15.484Z,48.14
2018-06-24T11:45:18.305Z,48.95
2018-06-24T11:46:21.190Z,48.36
2018-06-24T11:47:24.338Z,47.45
2018-06-24T11:48:27.287Z,47.29
2018-06-24T11:49:30.291Z,47.01
2018-06-24T11:50:33.745Z,47.34
2018-06-24T11:51:39.234Z,47.99
2018-06-24T11:52:42.743Z,48.16
2018-06-24T11:53:46.010Z,48.00
2018-06-24T11:54:48.841Z,48.35
2018-06-24T11:55:53.280Z,47.68
2018-06-24T11:56:56.721Z,47.26
2018-06-24T11:57:59.558Z,47.69
2018-06-24T11:59:04.001Z,46.56
2018-06-24T12:00:07.331Z,46.68
2018-06-24T12:01:11.376Z,45.87
2018-06-24T12:02:14.182Z,45.15
2018-06-24T12:03:17.075Z,44.74
2018-06-24T12:04:21.661Z,44.33
2018-06-24T12:05:26.583Z,46.75
2018-06-24T12:06:30.290Z,46.82
2018-06-24T12:07:34.085Z,46.39
2018-06-24T12:08:37.361Z,46.29
2018-06-24T12:09:41.625Z,46.32
2018-06-24T12:10:44.744Z,46.46
2018-06-24T12:11:49.595Z,45.94
2018-06-24T12:12:54.095Z,44.84
2018-06-24T12:13:57.002Z,45.47
2018-06-24T12:15:00.607Z,45.77
2018-06-24T12:16:05.366Z,45.39
2018-06-24T12:17:09.298Z,46.40
2018-06-24T12:18:12.155Z,46.24
2018-06-24T12:19:15.400Z,45.65
2018-06-24T12:20:18.201Z,45.95
2018-06-24T12:21:21.026Z,45.17
2018-06-24T12:22:23.951Z,46.07
2018-06-24T12:23:28.911Z,45.83
2018-06-24T12:24:32.575Z,45.19
2018-06-24T12:25:36.647Z,45.43
2018-06-24T12:26:39.494Z,44.99
2018-06-24T12:27:42.270Z,45.63
2018-06-24T12:28:49.870Z,45.41
2018-06-24T12:29:56.577Z,46.29
2018-06-24T12:30:59.456Z,44.91
2018-06-24T12:32:04.364Z,45.41
2018-06-24T12:33:08.272Z,45.36
2018-06-24T12:34:11.689Z,45.84
2018-06-24T12:35:17.528Z,47.54
2018-06-24T12:36:21.231Z,47.24
2018-06-24T12:37:26.502Z,46.01
2018-06-24T12:38:30.589Z,46.50
2018-06-24T12:39:35.030Z,46.69
2018-06-24T12:40:37.948Z,46.86
2018-06-24T12:41:40.731Z,45.75
2018-06-24T12:42:44.781Z,46.03
2018-06-24T12:43:48.242Z,45.32
2018-06-24T12:44:52.348Z,44.19
2018-06-24T12:45:56.228Z,45.25
2018-06-24T12:47:01.180Z,44.22
2018-06-24T12:48:06.422Z,45.53
2018-06-24T12:49:09.800Z,45.98
2018-06-24T12:50:14.261Z,44.99
2018-06-24T12:51:20.015Z,45.62
2018-06-24T12:52:24.602Z,45.75
2018-06-24T12:53:28.282Z,45.54
2018-06-24T12:54:32.496Z,44.22
2018-06-24T12:55:36.667Z,44.36
2018-06-24T12:56:40.356Z,44.31
2018-06-24T12:57:43.566Z,44.81
2018-06-24T12:58:48.622Z,44.27
2018-06-24T12:59:54.356Z,45.35
2018-06-24T13:01:07.087Z,46.37
2018-06-24T13:02:10.056Z,46.14
2018-06-24T13:03:14.016Z,45.90
2018-06-24T13:04:18.240Z,46.41
2018-06-24T13:05:22.596Z,47.01
2018-06-24T13:06:25.960Z,46.32
2018-06-24T13:07:30.524Z,45.77
2018-06-24T13:08:34.273Z,46.34
2018-06-24T13:09:37.189Z,46.63
2018-06-24T13:10:41.256Z,45.95
2018-06-24T13:11:44.226Z,45.69
2018-06-24T13:12:47.827Z,46.34
2018-06-24T13:13:51.401Z,45.12
2018-06-24T13:15:00.630Z,45.29
2018-06-24T13:16:05.365Z,45.10
2018-06-24T13:17:08.510Z,45.78
2018-06-24T13:18:12.246Z,45.66
2018-06-24T13:19:19.550Z,45.35
2018-06-24T13:20:22.316Z,45.57
2018-06-24T13:21:26.257Z,45.52
2018-06-24T13:22:35.803Z,45.81
2018-06-24T13:23:38.615Z,45.88
2018-06-24T13:24:41.537Z,45.56
2018-06-24T13:25:45.244Z,45.69
2018-06-24T13:26:48.768Z,45.62
2018-06-24T13:27:52.263Z,45.55
2018-06-24T13:28:58.242Z,45.92
2018-06-24T13:30:02.491Z,45.78
2018-06-24T13:31:05.604Z,46.52
2018-06-24T13:32:12.612Z,45.78
2018-06-24T13:33:15.464Z,47.25
2018-06-24T13:34:18.762Z,46.32
2018-06-24T13:35:24.196Z,46.45
2018-06-24T13:36:27.609Z,47.11
2018-06-24T13:37:31.449Z,46.72
2018-06-24T13:38:36.361Z,46.66
2018-06-24T13:39:39.686Z,46.74
2018-06-24T13:40:43.606Z,46.31